sensor_id;sensor_type;location;lat;lon;timestamp;temperature;humidity
50758;DHT22;36732;47.980;11.652;2022-12-29T00:02:17;7.70;58.50
50758;DHT22;36732;47.980;11.652;2022-12-29T00:04:43;7.70;58.50
50758;DHT22;36732;47.980;11.652;2022-12-29T00:07:08;7.70;58.50
50758;DHT22;36732;47.980;11.652;2022-12-29T00:09:35;7.70;58.60
50758;DHT22;36732;47.980;11.652;2022-12-29T00:12:02;7.70;58.50
50758;DHT22;36732;47.980;11.652;2022-12-29T00:14:28;7.70;58.50
50758;DHT22;36732;47.980;11.652;2022-12-29T00:17:13;7.70;58.20
50758;DHT22;36732;47.980;11.652;2022-12-29T00:19:39;7.70;58.20
50758;DHT22;36732;47.980;11.652;2022-12-29T00:22:23;7.70;58.20
50758;DHT22;36732;47.980;11.652;2022-12-29T00:25:09;7.70;58.30
50758;DHT22;36732;47.980;11.652;2022-12-29T00:27:55;7.70;58.20
50758;DHT22;36732;47.980;11.652;2022-12-29T00:30:40;7.80;58.20
50758;DHT22;36732;47.980;11.652;2022-12-29T00:33:32;7.80;58.10
50758;DHT22;36732;47.980;11.652;2022-12-29T00:36:35;7.70;57.70
50758;DHT22;36732;47.980;11.652;2022-12-29T00:39:09;7.70;57.60
50758;DHT22;36732;47.980;11.652;2022-12-29T00:42:06;7.80;57.60
50758;DHT22;36732;47.980;11.652;2022-12-29T00:44:51;7.80;57.60
50758;DHT22;36732;47.980;11.652;2022-12-29T00:47:17;7.80;57.90
50758;DHT22;36732;47.980;11.652;2022-12-29T00:49:43;7.80;57.80
50758;DHT22;36732;47.980;11.652;2022-12-29T00:52:13;7.80;57.80
50758;DHT22;36732;47.980;11.652;2022-12-29T00:54:40;7.80;57.50
50758;DHT22;36732;47.980;11.652;2022-12-29T00:57:07;7.80;57.70
50758;DHT22;36732;47.980;11.652;2022-12-29T00:59:35;7.80;57.70
50758;DHT22;36732;47.980;11.652;2022-12-29T01:02:01;7.80;57.70
50758;DHT22;36732;47.980;11.652;2022-12-29T01:04:27;7.80;57.60
50758;DHT22;36732;47.980;11.652;2022-12-29T01:06:53;7.70;57.30
50758;DHT22;36732;47.980;11.652;2022-12-29T01:09:19;7.80;57.40
50758;DHT22;36732;47.980;11.652;2022-12-29T01:12:05;7.80;57.50
50758;DHT22;36732;47.980;11.652;2022-12-29T01:14:31;7.80;57.60
50758;DHT22;36732;47.980;11.652;2022-12-29T01:16:57;7.80;57.50
50758;DHT22;36732;47.980;11.652;2022-12-29T01:19:23;7.80;57.40
50758;DHT22;36732;47.980;11.652;2022-12-29T01:21:49;7.70;57.20
50758;DHT22;36732;47.980;11.652;2022-12-29T01:24:16;7.70;57.20
50758;DHT22;36732;47.980;11.652;2022-12-29T01:26:43;7.70;57.30
50758;DHT22;36732;47.980;11.652;2022-12-29T01:29:09;7.70;57.40
50758;DHT22;36732;47.980;11.652;2022-12-29T01:31:35;7.70;57.40
50758;DHT22;36732;47.980;11.652;2022-12-29T01:34:00;7.80;57.30
50758;DHT22;36732;47.980;11.652;2022-12-29T01:36:27;7.70;57.30
50758;DHT22;36732;47.980;11.652;2022-12-29T01:38:52;7.80;57.30
50758;DHT22;36732;47.980;11.652;2022-12-29T01:41:18;7.70;57.10
50758;DHT22;36732;47.980;11.652;2022-12-29T01:43:53;7.70;57.00
50758;DHT22;36732;47.980;11.652;2022-12-29T01:46:37;7.70;56.90
50758;DHT22;36732;47.980;11.652;2022-12-29T01:51:37;7.70;56.90
50758;DHT22;36732;47.980;11.652;2022-12-29T01:54:09;7.70;56.90
50758;DHT22;36732;47.980;11.652;2022-12-29T01:56:38;7.70;56.90
50758;DHT22;36732;47.980;11.652;2022-12-29T01:59:08;7.70;57.20
50758;DHT22;36732;47.980;11.652;2022-12-29T02:01:41;7.70;57.00
50758;DHT22;36732;47.980;11.652;2022-12-29T02:04:08;7.70;57.30
50758;DHT22;36732;47.980;11.652;2022-12-29T02:06:41;7.70;57.00
50758;DHT22;36732;47.980;11.652;2022-12-29T02:09:10;7.70;57.00
50758;DHT22;36732;47.980;11.652;2022-12-29T02:11:36;7.70;57.00
50758;DHT22;36732;47.980;11.652;2022-12-29T02:14:09;7.70;57.10
50758;DHT22;36732;47.980;11.652;2022-12-29T02:16:40;7.70;57.10
50758;DHT22;36732;47.980;11.652;2022-12-29T02:19:58;7.70;57.10
50758;DHT22;36732;47.980;11.652;2022-12-29T02:32:23;7.70;56.90
50758;DHT22;36732;47.980;11.652;2022-12-29T02:35:05;7.70;57.20
50758;DHT22;36732;47.980;11.652;2022-12-29T02:40:48;7.70;57.40
50758;DHT22;36732;47.980;11.652;2022-12-29T02:46:34;7.70;56.90
50758;DHT22;36732;47.980;11.652;2022-12-29T02:49:13;7.60;56.90
50758;DHT22;36732;47.980;11.652;2022-12-29T02:52:00;7.70;57.00
50758;DHT22;36732;47.980;11.652;2022-12-29T02:54:29;7.70;57.00
50758;DHT22;36732;47.980;11.652;2022-12-29T02:59:51;7.60;56.90
50758;DHT22;36732;47.980;11.652;2022-12-29T03:02:30;7.70;56.60
50758;DHT22;36732;47.980;11.652;2022-12-29T03:05:17;7.70;56.60
50758;DHT22;36732;47.980;11.652;2022-12-29T03:16:32;7.70;56.30
50758;DHT22;36732;47.980;11.652;2022-12-29T03:19:17;7.60;55.50
50758;DHT22;36732;47.980;11.652;2022-12-29T03:21:57;7.60;56.10
50758;DHT22;36732;47.980;11.652;2022-12-29T03:24:47;7.70;56.20
50758;DHT22;36732;47.980;11.652;2022-12-29T03:27:18;7.60;57.30
50758;DHT22;36732;47.980;11.652;2022-12-29T03:29:50;7.60;56.60
50758;DHT22;36732;47.980;11.652;2022-12-29T03:32:24;7.70;56.60
50758;DHT22;36732;47.980;11.652;2022-12-29T03:34:53;7.60;56.40
50758;DHT22;36732;47.980;11.652;2022-12-29T03:37:32;7.70;56.80
50758;DHT22;36732;47.980;11.652;2022-12-29T03:40:01;7.70;55.60
50758;DHT22;36732;47.980;11.652;2022-12-29T03:42:30;7.70;56.20
50758;DHT22;36732;47.980;11.652;2022-12-29T03:44:57;7.70;56.20
50758;DHT22;36732;47.980;11.652;2022-12-29T03:47:24;7.70;56.30
50758;DHT22;36732;47.980;11.652;2022-12-29T03:49:50;7.60;56.30
50758;DHT22;36732;47.980;11.652;2022-12-29T03:52:17;7.70;56.40
50758;DHT22;36732;47.980;11.652;2022-12-29T03:54:43;7.70;56.40
50758;DHT22;36732;47.980;11.652;2022-12-29T03:57:10;7.70;56.20
50758;DHT22;36732;47.980;11.652;2022-12-29T03:59:36;7.70;56.00
50758;DHT22;36732;47.980;11.652;2022-12-29T04:02:02;7.70;56.10
50758;DHT22;36732;47.980;11.652;2022-12-29T04:04:28;7.70;56.10
50758;DHT22;36732;47.980;11.652;2022-12-29T04:06:53;7.70;56.10
50758;DHT22;36732;47.980;11.652;2022-12-29T04:09:19;7.70;56.00
50758;DHT22;36732;47.980;11.652;2022-12-29T04:11:45;7.70;56.10
50758;DHT22;36732;47.980;11.652;2022-12-29T04:14:10;7.70;56.10
50758;DHT22;36732;47.980;11.652;2022-12-29T04:16:36;7.70;56.20
50758;DHT22;36732;47.980;11.652;2022-12-29T04:19:04;7.70;56.30
50758;DHT22;36732;47.980;11.652;2022-12-29T04:21:31;7.70;56.30
50758;DHT22;36732;47.980;11.652;2022-12-29T04:23:56;7.70;56.30
50758;DHT22;36732;47.980;11.652;2022-12-29T04:26:22;7.70;56.10
50758;DHT22;36732;47.980;11.652;2022-12-29T04:28:48;7.70;56.00
50758;DHT22;36732;47.980;11.652;2022-12-29T04:31:13;7.70;55.80
50758;DHT22;36732;47.980;11.652;2022-12-29T04:33:39;7.70;55.80
50758;DHT22;36732;47.980;11.652;2022-12-29T04:36:05;7.70;55.70
50758;DHT22;36732;47.980;11.652;2022-12-29T04:38:31;7.70;55.70
50758;DHT22;36732;47.980;11.652;2022-12-29T04:41:00;7.70;55.60
50758;DHT22;36732;47.980;11.652;2022-12-29T04:43:26;7.70;55.30
50758;DHT22;36732;47.980;11.652;2022-12-29T04:45:51;7.70;55.40
50758;DHT22;36732;47.980;11.652;2022-12-29T04:48:17;7.70;55.30
50758;DHT22;36732;47.980;11.652;2022-12-29T04:50:43;7.80;55.60
50758;DHT22;36732;47.980;11.652;2022-12-29T04:53:09;7.70;55.80
50758;DHT22;36732;47.980;11.652;2022-12-29T04:55:35;7.70;55.90
50758;DHT22;36732;47.980;11.652;2022-12-29T04:58:01;7.70;56.20
50758;DHT22;36732;47.980;11.652;2022-12-29T05:00:27;7.80;56.40
50758;DHT22;36732;47.980;11.652;2022-12-29T05:02:52;7.80;56.60
50758;DHT22;36732;47.980;11.652;2022-12-29T05:05:18;7.80;56.60
50758;DHT22;36732;47.980;11.652;2022-12-29T05:07:44;7.80;56.70
50758;DHT22;36732;47.980;11.652;2022-12-29T05:10:10;7.80;56.90
50758;DHT22;36732;47.980;11.652;2022-12-29T05:12:37;7.80;56.80
50758;DHT22;36732;47.980;11.652;2022-12-29T05:15:05;7.80;56.90
50758;DHT22;36732;47.980;11.652;2022-12-29T05:17:32;7.80;57.00
50758;DHT22;36732;47.980;11.652;2022-12-29T05:19:57;7.90;56.70
50758;DHT22;36732;47.980;11.652;2022-12-29T05:22:23;7.90;56.50
50758;DHT22;36732;47.980;11.652;2022-12-29T05:24:49;7.90;56.20
50758;DHT22;36732;47.980;11.652;2022-12-29T05:27:14;7.90;56.10
50758;DHT22;36732;47.980;11.652;2022-12-29T05:29:40;7.90;56.00
50758;DHT22;36732;47.980;11.652;2022-12-29T05:32:06;7.90;56.00
50758;DHT22;36732;47.980;11.652;2022-12-29T05:34:32;7.90;56.00
50758;DHT22;36732;47.980;11.652;2022-12-29T05:36:57;7.90;56.00
50758;DHT22;36732;47.980;11.652;2022-12-29T05:39:23;7.90;56.00
50758;DHT22;36732;47.980;11.652;2022-12-29T05:41:49;7.90;56.10
50758;DHT22;36732;47.980;11.652;2022-12-29T05:44:14;7.90;56.10
50758;DHT22;36732;47.980;11.652;2022-12-29T05:46:40;7.90;56.30
50758;DHT22;36732;47.980;11.652;2022-12-29T05:49:06;7.90;56.30
50758;DHT22;36732;47.980;11.652;2022-12-29T05:51:32;7.90;56.30
50758;DHT22;36732;47.980;11.652;2022-12-29T05:53:58;7.90;56.60
50758;DHT22;36732;47.980;11.652;2022-12-29T05:56:23;7.90;56.60
50758;DHT22;36732;47.980;11.652;2022-12-29T05:58:49;7.90;56.40
50758;DHT22;36732;47.980;11.652;2022-12-29T06:01:15;7.90;56.40
50758;DHT22;36732;47.980;11.652;2022-12-29T06:03:41;7.90;56.50
50758;DHT22;36732;47.980;11.652;2022-12-29T06:06:07;7.90;56.50
50758;DHT22;36732;47.980;11.652;2022-12-29T06:08:33;7.90;56.50
50758;DHT22;36732;47.980;11.652;2022-12-29T06:10:59;7.90;56.50
50758;DHT22;36732;47.980;11.652;2022-12-29T06:13:25;7.90;56.30
50758;DHT22;36732;47.980;11.652;2022-12-29T06:15:51;7.90;56.10
50758;DHT22;36732;47.980;11.652;2022-12-29T06:18:17;7.90;56.10
50758;DHT22;36732;47.980;11.652;2022-12-29T06:20:42;7.90;56.20
50758;DHT22;36732;47.980;11.652;2022-12-29T06:23:08;7.90;56.00
50758;DHT22;36732;47.980;11.652;2022-12-29T06:25:34;7.90;56.00
50758;DHT22;36732;47.980;11.652;2022-12-29T06:28:02;7.90;56.00
50758;DHT22;36732;47.980;11.652;2022-12-29T06:30:28;7.90;56.00
50758;DHT22;36732;47.980;11.652;2022-12-29T06:32:53;7.90;56.20
50758;DHT22;36732;47.980;11.652;2022-12-29T06:35:20;8.00;56.30
50758;DHT22;36732;47.980;11.652;2022-12-29T06:37:48;7.90;56.50
50758;DHT22;36732;47.980;11.652;2022-12-29T06:40:13;8.00;56.60
50758;DHT22;36732;47.980;11.652;2022-12-29T06:42:39;8.00;56.60
50758;DHT22;36732;47.980;11.652;2022-12-29T06:45:05;8.00;56.70
50758;DHT22;36732;47.980;11.652;2022-12-29T06:47:33;8.00;56.70
50758;DHT22;36732;47.980;11.652;2022-12-29T06:49:59;8.00;56.90
50758;DHT22;36732;47.980;11.652;2022-12-29T06:52:25;8.00;56.80
50758;DHT22;36732;47.980;11.652;2022-12-29T06:54:51;8.00;56.90
50758;DHT22;36732;47.980;11.652;2022-12-29T06:57:17;8.00;57.10
50758;DHT22;36732;47.980;11.652;2022-12-29T06:59:42;8.00;56.80
50758;DHT22;36732;47.980;11.652;2022-12-29T07:02:10;8.00;56.60
50758;DHT22;36732;47.980;11.652;2022-12-29T07:04:36;8.00;56.30
50758;DHT22;36732;47.980;11.652;2022-12-29T07:07:02;8.00;56.20
50758;DHT22;36732;47.980;11.652;2022-12-29T07:09:28;8.00;56.20
50758;DHT22;36732;47.980;11.652;2022-12-29T07:11:54;8.00;56.00
50758;DHT22;36732;47.980;11.652;2022-12-29T07:14:20;8.00;56.20
50758;DHT22;36732;47.980;11.652;2022-12-29T07:16:45;8.00;56.40
50758;DHT22;36732;47.980;11.652;2022-12-29T07:19:11;8.00;56.40
50758;DHT22;36732;47.980;11.652;2022-12-29T07:21:37;8.00;56.40
50758;DHT22;36732;47.980;11.652;2022-12-29T07:24:03;8.00;56.50
50758;DHT22;36732;47.980;11.652;2022-12-29T07:26:29;8.00;56.30
50758;DHT22;36732;47.980;11.652;2022-12-29T07:28:54;8.00;56.30
50758;DHT22;36732;47.980;11.652;2022-12-29T07:31:22;8.00;56.40
50758;DHT22;36732;47.980;11.652;2022-12-29T07:33:48;8.00;56.60
50758;DHT22;36732;47.980;11.652;2022-12-29T07:36:15;8.00;57.10
50758;DHT22;36732;47.980;11.652;2022-12-29T07:38:42;8.00;56.50
50758;DHT22;36732;47.980;11.652;2022-12-29T07:41:08;8.00;57.10
50758;DHT22;36732;47.980;11.652;2022-12-29T07:43:34;8.00;56.60
50758;DHT22;36732;47.980;11.652;2022-12-29T07:45:59;8.00;56.60
50758;DHT22;36732;47.980;11.652;2022-12-29T07:48:25;8.00;56.60
50758;DHT22;36732;47.980;11.652;2022-12-29T07:50:52;8.00;56.60
50758;DHT22;36732;47.980;11.652;2022-12-29T07:53:18;8.00;56.60
50758;DHT22;36732;47.980;11.652;2022-12-29T07:55:44;8.00;56.80
50758;DHT22;36732;47.980;11.652;2022-12-29T07:58:10;8.00;56.90
50758;DHT22;36732;47.980;11.652;2022-12-29T08:00:35;8.00;56.90
50758;DHT22;36732;47.980;11.652;2022-12-29T08:03:01;8.10;57.00
50758;DHT22;36732;47.980;11.652;2022-12-29T08:05:27;8.10;56.90
50758;DHT22;36732;47.980;11.652;2022-12-29T08:07:53;8.10;56.80
50758;DHT22;36732;47.980;11.652;2022-12-29T08:10:19;8.10;56.80
50758;DHT22;36732;47.980;11.652;2022-12-29T08:12:44;8.10;56.80
50758;DHT22;36732;47.980;11.652;2022-12-29T08:15:11;8.10;56.50
50758;DHT22;36732;47.980;11.652;2022-12-29T08:17:37;8.10;56.50
50758;DHT22;36732;47.980;11.652;2022-12-29T08:20:04;8.10;56.30
50758;DHT22;36732;47.980;11.652;2022-12-29T08:22:30;8.10;56.40
50758;DHT22;36732;47.980;11.652;2022-12-29T08:24:56;8.10;56.40
50758;DHT22;36732;47.980;11.652;2022-12-29T08:27:21;8.10;56.40
50758;DHT22;36732;47.980;11.652;2022-12-29T08:29:47;8.10;56.30
50758;DHT22;36732;47.980;11.652;2022-12-29T08:32:13;8.10;56.30
50758;DHT22;36732;47.980;11.652;2022-12-29T08:34:39;8.10;56.10
50758;DHT22;36732;47.980;11.652;2022-12-29T08:37:04;8.10;56.20
50758;DHT22;36732;47.980;11.652;2022-12-29T08:39:30;8.10;56.00
50758;DHT22;36732;47.980;11.652;2022-12-29T08:41:56;8.10;55.80
50758;DHT22;36732;47.980;11.652;2022-12-29T08:44:22;8.10;55.70
50758;DHT22;36732;47.980;11.652;2022-12-29T08:46:47;8.10;55.80
50758;DHT22;36732;47.980;11.652;2022-12-29T08:49:13;8.10;55.80
50758;DHT22;36732;47.980;11.652;2022-12-29T08:51:39;8.10;55.90
50758;DHT22;36732;47.980;11.652;2022-12-29T08:54:05;8.10;55.80
50758;DHT22;36732;47.980;11.652;2022-12-29T08:56:31;8.10;55.80
50758;DHT22;36732;47.980;11.652;2022-12-29T08:58:57;8.10;55.80
50758;DHT22;36732;47.980;11.652;2022-12-29T09:01:23;8.10;55.80
50758;DHT22;36732;47.980;11.652;2022-12-29T09:03:49;8.10;55.90
50758;DHT22;36732;47.980;11.652;2022-12-29T09:06:16;8.10;55.90
50758;DHT22;36732;47.980;11.652;2022-12-29T09:08:43;8.10;55.90
50758;DHT22;36732;47.980;11.652;2022-12-29T09:11:21;8.10;55.90
50758;DHT22;36732;47.980;11.652;2022-12-29T09:13:48;8.10;55.50
50758;DHT22;36732;47.980;11.652;2022-12-29T09:16:15;8.20;55.70
50758;DHT22;36732;47.980;11.652;2022-12-29T09:18:42;8.20;55.50
50758;DHT22;36732;47.980;11.652;2022-12-29T09:21:10;8.20;55.30
50758;DHT22;36732;47.980;11.652;2022-12-29T09:23:36;8.20;55.10
50758;DHT22;36732;47.980;11.652;2022-12-29T09:26:04;8.20;54.90
50758;DHT22;36732;47.980;11.652;2022-12-29T09:28:30;8.20;54.70
50758;DHT22;36732;47.980;11.652;2022-12-29T09:30:57;8.20;54.80
50758;DHT22;36732;47.980;11.652;2022-12-29T09:33:24;8.20;54.90
50758;DHT22;36732;47.980;11.652;2022-12-29T09:35:55;8.30;54.90
50758;DHT22;36732;47.980;11.652;2022-12-29T09:38:22;8.30;54.90
50758;DHT22;36732;47.980;11.652;2022-12-29T09:40:55;8.30;55.30
50758;DHT22;36732;47.980;11.652;2022-12-29T09:46:29;8.30;55.90
50758;DHT22;36732;47.980;11.652;2022-12-29T09:52:00;8.40;55.70
50758;DHT22;36732;47.980;11.652;2022-12-29T09:54:48;8.40;55.00
50758;DHT22;36732;47.980;11.652;2022-12-29T09:57:48;8.40;54.90
50758;DHT22;36732;47.980;11.652;2022-12-29T10:00:21;8.50;55.00
50758;DHT22;36732;47.980;11.652;2022-12-29T10:03:20;8.50;55.20
50758;DHT22;36732;47.980;11.652;2022-12-29T10:05:59;8.50;55.10
50758;DHT22;36732;47.980;11.652;2022-12-29T10:17:42;8.60;55.10
50758;DHT22;36732;47.980;11.652;2022-12-29T10:20:38;8.70;55.50
50758;DHT22;36732;47.980;11.652;2022-12-29T10:23:50;8.70;54.90
50758;DHT22;36732;47.980;11.652;2022-12-29T10:26:16;8.70;55.50
50758;DHT22;36732;47.980;11.652;2022-12-29T10:29:05;8.80;54.70
50758;DHT22;36732;47.980;11.652;2022-12-29T10:32:06;8.80;54.10
50758;DHT22;36732;47.980;11.652;2022-12-29T10:34:49;8.80;54.20
50758;DHT22;36732;47.980;11.652;2022-12-29T10:39:52;9.00;54.20
50758;DHT22;36732;47.980;11.652;2022-12-29T10:42:29;9.00;53.90
50758;DHT22;36732;47.980;11.652;2022-12-29T10:45:00;9.00;54.00
50758;DHT22;36732;47.980;11.652;2022-12-29T10:47:33;9.00;54.30
50758;DHT22;36732;47.980;11.652;2022-12-29T10:50:02;9.10;53.80
50758;DHT22;36732;47.980;11.652;2022-12-29T10:52:29;9.10;54.10
50758;DHT22;36732;47.980;11.652;2022-12-29T10:55:05;9.10;53.90
50758;DHT22;36732;47.980;11.652;2022-12-29T10:57:43;9.10;53.60
50758;DHT22;36732;47.980;11.652;2022-12-29T11:00:21;9.10;53.50
50758;DHT22;36732;47.980;11.652;2022-12-29T11:03:06;9.20;52.90
50758;DHT22;36732;47.980;11.652;2022-12-29T11:05:46;9.20;53.00
50758;DHT22;36732;47.980;11.652;2022-12-29T11:08:32;9.20;53.70
50758;DHT22;36732;47.980;11.652;2022-12-29T11:11:01;9.20;53.90
50758;DHT22;36732;47.980;11.652;2022-12-29T11:13:31;9.30;54.10
50758;DHT22;36732;47.980;11.652;2022-12-29T11:15:59;9.30;53.90
50758;DHT22;36732;47.980;11.652;2022-12-29T11:18:37;9.30;53.70
50758;DHT22;36732;47.980;11.652;2022-12-29T11:21:06;9.30;53.40
50758;DHT22;36732;47.980;11.652;2022-12-29T11:24:05;9.30;53.80
50758;DHT22;36732;47.980;11.652;2022-12-29T11:26:40;9.40;53.60
50758;DHT22;36732;47.980;11.652;2022-12-29T11:29:27;9.40;53.90
50758;DHT22;36732;47.980;11.652;2022-12-29T11:31:56;9.40;53.00
50758;DHT22;36732;47.980;11.652;2022-12-29T11:37:05;9.40;53.60
50758;DHT22;36732;47.980;11.652;2022-12-29T11:42:36;9.40;53.00
50758;DHT22;36732;47.980;11.652;2022-12-29T11:45:16;9.50;53.50
50758;DHT22;36732;47.980;11.652;2022-12-29T11:47:47;9.50;53.80
50758;DHT22;36732;47.980;11.652;2022-12-29T11:50:21;9.50;54.20
50758;DHT22;36732;47.980;11.652;2022-12-29T11:53:05;9.50;54.10
50758;DHT22;36732;47.980;11.652;2022-12-29T11:55:33;9.50;54.20
50758;DHT22;36732;47.980;11.652;2022-12-29T11:58:02;9.50;54.30
50758;DHT22;36732;47.980;11.652;2022-12-29T12:00:33;9.50;54.00
50758;DHT22;36732;47.980;11.652;2022-12-29T12:05:41;9.50;53.20
50758;DHT22;36732;47.980;11.652;2022-12-29T12:08:17;9.50;53.10
50758;DHT22;36732;47.980;11.652;2022-12-29T12:10:55;9.60;53.10
50758;DHT22;36732;47.980;11.652;2022-12-29T12:14:06;9.60;53.10
50758;DHT22;36732;47.980;11.652;2022-12-29T12:16:37;9.60;53.10
50758;DHT22;36732;47.980;11.652;2022-12-29T12:19:38;9.60;53.20
50758;DHT22;36732;47.980;11.652;2022-12-29T12:25:10;9.60;53.20
50758;DHT22;36732;47.980;11.652;2022-12-29T12:27:50;9.70;53.20
50758;DHT22;36732;47.980;11.652;2022-12-29T12:30:21;9.60;53.10
50758;DHT22;36732;47.980;11.652;2022-12-29T12:33:16;9.70;53.50
50758;DHT22;36732;47.980;11.652;2022-12-29T12:44:50;9.70;53.60
50758;DHT22;36732;47.980;11.652;2022-12-29T12:51:07;9.70;52.80
50758;DHT22;36732;47.980;11.652;2022-12-29T12:53:47;9.70;53.90
50758;DHT22;36732;47.980;11.652;2022-12-29T12:56:43;9.70;53.20
50758;DHT22;36732;47.980;11.652;2022-12-29T13:02:28;9.80;52.60
50758;DHT22;36732;47.980;11.652;2022-12-29T13:05:38;9.80;52.40
50758;DHT22;36732;47.980;11.652;2022-12-29T13:14:45;9.80;52.60
50758;DHT22;36732;47.980;11.652;2022-12-29T13:17:30;9.80;53.70
50758;DHT22;36732;47.980;11.652;2022-12-29T13:28:49;9.90;53.00
50758;DHT22;36732;47.980;11.652;2022-12-29T13:38:10;9.90;53.90
50758;DHT22;36732;47.980;11.652;2022-12-29T13:40:42;10.00;54.30
50758;DHT22;36732;47.980;11.652;2022-12-29T13:43:12;10.00;54.20
50758;DHT22;36732;47.980;11.652;2022-12-29T13:45:39;10.00;53.80
50758;DHT22;36732;47.980;11.652;2022-12-29T13:48:25;10.00;53.80
50758;DHT22;36732;47.980;11.652;2022-12-29T13:50:59;10.00;53.20
50758;DHT22;36732;47.980;11.652;2022-12-29T13:56:30;10.00;53.30
50758;DHT22;36732;47.980;11.652;2022-12-29T14:02:19;10.00;52.90
50758;DHT22;36732;47.980;11.652;2022-12-29T14:05:02;10.00;53.30
50758;DHT22;36732;47.980;11.652;2022-12-29T14:07:36;10.00;53.30
50758;DHT22;36732;47.980;11.652;2022-12-29T14:10:04;10.00;53.00
50758;DHT22;36732;47.980;11.652;2022-12-29T14:15:21;10.00;52.60
50758;DHT22;36732;47.980;11.652;2022-12-29T14:31:02;10.00;52.90
50758;DHT22;36732;47.980;11.652;2022-12-29T14:33:33;10.00;52.90
50758;DHT22;36732;47.980;11.652;2022-12-29T14:36:29;10.00;53.00
50758;DHT22;36732;47.980;11.652;2022-12-29T14:38:59;10.00;52.80
50758;DHT22;36732;47.980;11.652;2022-12-29T14:41:31;10.00;53.20
50758;DHT22;36732;47.980;11.652;2022-12-29T14:44:08;10.00;52.80
50758;DHT22;36732;47.980;11.652;2022-12-29T14:47:16;10.00;53.10
50758;DHT22;36732;47.980;11.652;2022-12-29T14:49:42;10.00;53.50
50758;DHT22;36732;47.980;11.652;2022-12-29T14:52:14;10.00;53.30
50758;DHT22;36732;47.980;11.652;2022-12-29T14:54:44;10.00;53.30
50758;DHT22;36732;47.980;11.652;2022-12-29T14:57:33;10.00;53.70
50758;DHT22;36732;47.980;11.652;2022-12-29T15:00:22;10.00;53.40
50758;DHT22;36732;47.980;11.652;2022-12-29T15:03:10;10.00;53.30
50758;DHT22;36732;47.980;11.652;2022-12-29T15:05:48;10.00;53.90
50758;DHT22;36732;47.980;11.652;2022-12-29T15:08:31;9.90;53.80
50758;DHT22;36732;47.980;11.652;2022-12-29T15:11:19;9.90;54.00
50758;DHT22;36732;47.980;11.652;2022-12-29T15:13:50;9.90;54.10
50758;DHT22;36732;47.980;11.652;2022-12-29T15:18:56;9.90;54.20
50758;DHT22;36732;47.980;11.652;2022-12-29T15:21:31;9.90;54.40
50758;DHT22;36732;47.980;11.652;2022-12-29T15:24:00;9.90;54.50
50758;DHT22;36732;47.980;11.652;2022-12-29T15:26:39;9.90;54.40
50758;DHT22;36732;47.980;11.652;2022-12-29T15:29:39;9.90;54.40
50758;DHT22;36732;47.980;11.652;2022-12-29T15:32:25;9.90;54.60
50758;DHT22;36732;47.980;11.652;2022-12-29T15:34:54;9.90;54.10
50758;DHT22;36732;47.980;11.652;2022-12-29T15:37:23;9.90;54.70
50758;DHT22;36732;47.980;11.652;2022-12-29T15:39:51;9.80;54.80
50758;DHT22;36732;47.980;11.652;2022-12-29T15:42:44;9.90;55.00
50758;DHT22;36732;47.980;11.652;2022-12-29T15:45:14;9.80;55.00
50758;DHT22;36732;47.980;11.652;2022-12-29T15:47:42;9.80;55.10
50758;DHT22;36732;47.980;11.652;2022-12-29T15:52:53;9.80;54.60
50758;DHT22;36732;47.980;11.652;2022-12-29T15:55:42;9.80;55.00
50758;DHT22;36732;47.980;11.652;2022-12-29T15:58:25;9.80;55.00
50758;DHT22;36732;47.980;11.652;2022-12-29T16:00:58;9.80;55.10
50758;DHT22;36732;47.980;11.652;2022-12-29T16:03:27;9.80;54.90
50758;DHT22;36732;47.980;11.652;2022-12-29T16:06:08;9.80;54.80
50758;DHT22;36732;47.980;11.652;2022-12-29T16:08:37;9.70;54.50
50758;DHT22;36732;47.980;11.652;2022-12-29T16:11:27;9.70;54.80
50758;DHT22;36732;47.980;11.652;2022-12-29T16:13:57;9.70;54.80
50758;DHT22;36732;47.980;11.652;2022-12-29T16:16:31;9.80;55.10
50758;DHT22;36732;47.980;11.652;2022-12-29T16:19:06;9.70;54.80
50758;DHT22;36732;47.980;11.652;2022-12-29T16:21:49;9.70;55.20
50758;DHT22;36732;47.980;11.652;2022-12-29T16:24:20;9.70;55.10
50758;DHT22;36732;47.980;11.652;2022-12-29T16:26:56;9.70;55.10
50758;DHT22;36732;47.980;11.652;2022-12-29T16:29:25;9.70;55.30
50758;DHT22;36732;47.980;11.652;2022-12-29T16:31:53;9.70;55.30
50758;DHT22;36732;47.980;11.652;2022-12-29T16:34:42;9.70;55.40
50758;DHT22;36732;47.980;11.652;2022-12-29T16:37:32;9.70;55.50
50758;DHT22;36732;47.980;11.652;2022-12-29T16:40:28;9.70;55.40
50758;DHT22;36732;47.980;11.652;2022-12-29T16:43:19;9.70;55.60
50758;DHT22;36732;47.980;11.652;2022-12-29T16:48:27;9.70;55.80
50758;DHT22;36732;47.980;11.652;2022-12-29T16:53:37;9.70;56.00
50758;DHT22;36732;47.980;11.652;2022-12-29T16:56:19;9.70;56.00
50758;DHT22;36732;47.980;11.652;2022-12-29T16:58:51;9.70;56.10
50758;DHT22;36732;47.980;11.652;2022-12-29T17:01:23;9.70;55.80
50758;DHT22;36732;47.980;11.652;2022-12-29T17:03:57;9.70;55.90
50758;DHT22;36732;47.980;11.652;2022-12-29T17:06:24;9.70;56.00
50758;DHT22;36732;47.980;11.652;2022-12-29T17:08:51;9.60;55.90
50758;DHT22;36732;47.980;11.652;2022-12-29T17:11:27;9.70;56.00
50758;DHT22;36732;47.980;11.652;2022-12-29T17:20:18;9.60;55.90
50758;DHT22;36732;47.980;11.652;2022-12-29T17:22:46;9.60;55.80
50758;DHT22;36732;47.980;11.652;2022-12-29T17:25:18;9.60;56.00
50758;DHT22;36732;47.980;11.652;2022-12-29T17:27:49;9.60;55.70
50758;DHT22;36732;47.980;11.652;2022-12-29T17:30:21;9.60;55.90
50758;DHT22;36732;47.980;11.652;2022-12-29T17:32:51;9.60;55.90
50758;DHT22;36732;47.980;11.652;2022-12-29T17:35:20;9.50;55.80
50758;DHT22;36732;47.980;11.652;2022-12-29T17:37:47;9.60;55.80
50758;DHT22;36732;47.980;11.652;2022-12-29T17:40:20;9.50;55.70
50758;DHT22;36732;47.980;11.652;2022-12-29T17:42:48;9.50;55.80
50758;DHT22;36732;47.980;11.652;2022-12-29T17:45:21;9.60;55.70
50758;DHT22;36732;47.980;11.652;2022-12-29T17:47:52;9.60;55.70
50758;DHT22;36732;47.980;11.652;2022-12-29T17:50:20;9.50;55.60
50758;DHT22;36732;47.980;11.652;2022-12-29T17:52:51;9.50;55.60
50758;DHT22;36732;47.980;11.652;2022-12-29T17:55:23;9.60;55.60
50758;DHT22;36732;47.980;11.652;2022-12-29T17:57:51;9.50;55.60
50758;DHT22;36732;47.980;11.652;2022-12-29T18:00:22;9.50;55.40
50758;DHT22;36732;47.980;11.652;2022-12-29T18:02:52;9.50;55.40
50758;DHT22;36732;47.980;11.652;2022-12-29T18:05:27;9.50;55.50
50758;DHT22;36732;47.980;11.652;2022-12-29T18:07:58;9.50;55.20
50758;DHT22;36732;47.980;11.652;2022-12-29T18:10:26;9.50;55.40
50758;DHT22;36732;47.980;11.652;2022-12-29T18:12:54;9.50;55.40
50758;DHT22;36732;47.980;11.652;2022-12-29T18:15:29;9.50;55.50
50758;DHT22;36732;47.980;11.652;2022-12-29T18:20:27;9.50;55.20